sensor_id;sensor_type;location;lat;lon;timestamp;P1;durP1;ratioP1;P2;durP2;ratioP2
48199;SDS011;33990;44.602;10.976;2023-09-19T00:00:47;7.38;;;4.32;;
48199;SDS011;33990;44.602;10.976;2023-09-19T00:03:16;9.32;;;4.82;;
48199;SDS011;33990;44.602;10.976;2023-09-19T00:05:43;6.45;;;4.43;;
48199;SDS011;33990;44.602;10.976;2023-09-19T00:08:12;7.35;;;4.53;;
48199;SDS011;33990;44.602;10.976;2023-09-19T00:10:46;8.07;;;4.22;;
48199;SDS011;33990;44.602;10.976;2023-09-19T00:17:51;7.20;;;4.57;;
48199;SDS011;33990;44.602;10.976;2023-09-19T00:20:19;7.93;;;4.70;;
48199;SDS011;33990;44.602;10.976;2023-09-19T00:22:51;6.50;;;4.25;;
48199;SDS011;33990;44.602;10.976;2023-09-19T00:25:20;6.68;;;4.30;;
48199;SDS011;33990;44.602;10.976;2023-09-19T00:27:48;6.63;;;4.63;;
48199;SDS011;33990;44.602;10.976;2023-09-19T00:30:18;7.45;;;4.30;;
48199;SDS011;33990;44.602;10.976;2023-09-19T00:32:48;9.32;;;4.68;;
48199;SDS011;33990;44.602;10.976;2023-09-19T00:35:21;10.35;;;4.78;;
48199;SDS011;33990;44.602;10.976;2023-09-19T00:37:53;6.78;;;4.72;;
48199;SDS011;33990;44.602;10.976;2023-09-19T00:40:20;7.60;;;4.05;;
48199;SDS011;33990;44.602;10.976;2023-09-19T00:42:48;7.75;;;4.80;;
48199;SDS011;33990;44.602;10.976;2023-09-19T00:45:17;7.72;;;4.20;;
48199;SDS011;33990;44.602;10.976;2023-09-19T00:47:46;6.25;;;4.25;;
48199;SDS011;33990;44.602;10.976;2023-09-19T00:50:19;7.90;;;4.65;;
48199;SDS011;33990;44.602;10.976;2023-09-19T00:52:50;7.45;;;3.97;;
48199;SDS011;33990;44.602;10.976;2023-09-19T00:55:20;7.65;;;4.70;;
48199;SDS011;33990;44.602;10.976;2023-09-19T00:57:48;7.28;;;4.18;;
48199;SDS011;33990;44.602;10.976;2023-09-19T01:00:18;7.00;;;4.30;;
48199;SDS011;33990;44.602;10.976;2023-09-19T01:02:47;9.82;;;4.47;;
48199;SDS011;33990;44.602;10.976;2023-09-19T01:05:16;5.38;;;4.10;;
48199;SDS011;33990;44.602;10.976;2023-09-19T01:12:16;8.35;;;4.68;;
48199;SDS011;33990;44.602;10.976;2023-09-19T01:14:55;8.27;;;4.47;;
48199;SDS011;33990;44.602;10.976;2023-09-19T01:17:29;6.10;;;4.72;;
48199;SDS011;33990;44.602;10.976;2023-09-19T01:25:28;5.97;;;4.05;;
48199;SDS011;33990;44.602;10.976;2023-09-19T01:31:11;6.65;;;4.90;;
48199;SDS011;33990;44.602;10.976;2023-09-19T01:33:55;6.68;;;4.38;;
48199;SDS011;33990;44.602;10.976;2023-09-19T01:36:28;6.05;;;4.47;;
48199;SDS011;33990;44.602;10.976;2023-09-19T01:38:57;6.63;;;4.53;;
48199;SDS011;33990;44.602;10.976;2023-09-19T01:41:30;7.22;;;4.40;;
48199;SDS011;33990;44.602;10.976;2023-09-19T01:44:09;6.75;;;4.30;;
48199;SDS011;33990;44.602;10.976;2023-09-19T01:46:41;7.68;;;4.57;;
48199;SDS011;33990;44.602;10.976;2023-09-19T01:49:15;5.78;;;3.72;;
48199;SDS011;33990;44.602;10.976;2023-09-19T01:52:10;5.68;;;3.80;;
48199;SDS011;33990;44.602;10.976;2023-09-19T01:54:48;8.23;;;4.68;;
48199;SDS011;33990;44.602;10.976;2023-09-19T01:57:24;7.97;;;5.10;;
48199;SDS011;33990;44.602;10.976;2023-09-19T01:59:59;9.18;;;5.07;;
48199;SDS011;33990;44.602;10.976;2023-09-19T02:02:42;4.82;;;3.83;;
48199;SDS011;33990;44.602;10.976;2023-09-19T02:05:12;6.68;;;4.30;;
48199;SDS011;33990;44.602;10.976;2023-09-19T02:07:39;7.35;;;4.32;;
48199;SDS011;33990;44.602;10.976;2023-09-19T02:10:07;8.70;;;5.15;;
48199;SDS011;33990;44.602;10.976;2023-09-19T02:12:37;6.07;;;4.22;;
48199;SDS011;33990;44.602;10.976;2023-09-19T02:15:05;6.40;;;4.40;;
48199;SDS011;33990;44.602;10.976;2023-09-19T02:17:34;5.93;;;4.50;;
48199;SDS011;33990;44.602;10.976;2023-09-19T02:20:02;8.77;;;4.95;;
48199;SDS011;33990;44.602;10.976;2023-09-19T02:22:37;9.77;;;4.55;;
48199;SDS011;33990;44.602;10.976;2023-09-19T02:25:06;9.52;;;5.05;;
48199;SDS011;33990;44.602;10.976;2023-09-19T02:27:35;6.82;;;4.15;;
48199;SDS011;33990;44.602;10.976;2023-09-19T02:30:04;7.05;;;4.22;;
48199;SDS011;33990;44.602;10.976;2023-09-19T02:32:33;8.30;;;4.30;;
48199;SDS011;33990;44.602;10.976;2023-09-19T02:35:04;6.80;;;4.25;;
48199;SDS011;33990;44.602;10.976;2023-09-19T02:37:32;5.47;;;4.20;;
48199;SDS011;33990;44.602;10.976;2023-09-19T02:40:00;8.15;;;4.28;;
48199;SDS011;33990;44.602;10.976;2023-09-19T02:42:27;9.68;;;4.53;;
48199;SDS011;33990;44.602;10.976;2023-09-19T02:44:55;7.80;;;4.03;;
48199;SDS011;33990;44.602;10.976;2023-09-19T02:47:23;7.60;;;5.32;;
48199;SDS011;33990;44.602;10.976;2023-09-19T02:49:51;6.00;;;3.85;;
48199;SDS011;33990;44.602;10.976;2023-09-19T02:52:19;7.85;;;4.38;;
48199;SDS011;33990;44.602;10.976;2023-09-19T02:54:46;8.27;;;4.10;;
48199;SDS011;33990;44.602;10.976;2023-09-19T02:57:13;6.45;;;3.83;;
48199;SDS011;33990;44.602;10.976;2023-09-19T02:59:43;9.68;;;4.85;;
48199;SDS011;33990;44.602;10.976;2023-09-19T03:02:11;7.60;;;4.63;;
48199;SDS011;33990;44.602;10.976;2023-09-19T03:04:38;6.88;;;4.20;;
48199;SDS011;33990;44.602;10.976;2023-09-19T03:07:06;8.13;;;3.83;;
48199;SDS011;33990;44.602;10.976;2023-09-19T03:09:33;6.10;;;3.90;;
48199;SDS011;33990;44.602;10.976;2023-09-19T03:12:01;7.93;;;4.32;;
48199;SDS011;33990;44.602;10.976;2023-09-19T03:14:28;8.93;;;4.97;;
48199;SDS011;33990;44.602;10.976;2023-09-19T03:16:58;6.97;;;4.47;;
48199;SDS011;33990;44.602;10.976;2023-09-19T03:19:27;8.43;;;4.72;;
48199;SDS011;33990;44.602;10.976;2023-09-19T03:21:56;6.00;;;4.30;;
48199;SDS011;33990;44.602;10.976;2023-09-19T03:24:24;8.65;;;3.92;;
48199;SDS011;33990;44.602;10.976;2023-09-19T03:26:53;7.00;;;4.72;;
48199;SDS011;33990;44.602;10.976;2023-09-19T03:29:21;9.55;;;4.53;;
48199;SDS011;33990;44.602;10.976;2023-09-19T03:31:49;7.35;;;4.40;;
48199;SDS011;33990;44.602;10.976;2023-09-19T03:34:17;9.60;;;4.60;;
48199;SDS011;33990;44.602;10.976;2023-09-19T03:36:44;7.32;;;4.05;;
48199;SDS011;33990;44.602;10.976;2023-09-19T03:39:11;7.13;;;4.80;;
48199;SDS011;33990;44.602;10.976;2023-09-19T03:41:39;8.52;;;4.10;;
48199;SDS011;33990;44.602;10.976;2023-09-19T03:44:07;7.82;;;4.30;;
48199;SDS011;33990;44.602;10.976;2023-09-19T03:46:35;8.60;;;4.72;;
48199;SDS011;33990;44.602;10.976;2023-09-19T03:49:03;6.22;;;4.15;;
48199;SDS011;33990;44.602;10.976;2023-09-19T03:51:30;10.90;;;4.38;;
48199;SDS011;33990;44.602;10.976;2023-09-19T03:53:58;7.25;;;4.20;;
48199;SDS011;33990;44.602;10.976;2023-09-19T03:56:26;9.10;;;4.20;;
48199;SDS011;33990;44.602;10.976;2023-09-19T03:58:55;7.30;;;4.05;;
48199;SDS011;33990;44.602;10.976;2023-09-19T04:01:23;10.40;;;4.93;;
48199;SDS011;33990;44.602;10.976;2023-09-19T04:03:50;5.55;;;3.67;;
48199;SDS011;33990;44.602;10.976;2023-09-19T04:06:20;9.32;;;5.15;;
48199;SDS011;33990;44.602;10.976;2023-09-19T04:08:47;6.10;;;4.07;;
48199;SDS011;33990;44.602;10.976;2023-09-19T04:11:15;8.30;;;4.53;;
48199;SDS011;33990;44.602;10.976;2023-09-19T04:13:44;8.68;;;4.07;;
48199;SDS011;33990;44.602;10.976;2023-09-19T04:16:11;7.78;;;4.45;;
48199;SDS011;33990;44.602;10.976;2023-09-19T04:18:39;7.32;;;4.53;;
48199;SDS011;33990;44.602;10.976;2023-09-19T04:21:08;9.07;;;4.00;;
48199;SDS011;33990;44.602;10.976;2023-09-19T04:23:35;7.82;;;3.58;;
48199;SDS011;33990;44.602;10.976;2023-09-19T04:26:03;10.35;;;4.32;;
48199;SDS011;33990;44.602;10.976;2023-09-19T04:28:34;9.10;;;4.85;;
48199;SDS011;33990;44.602;10.976;2023-09-19T04:31:05;11.50;;;5.15;;
48199;SDS011;33990;44.602;10.976;2023-09-19T04:33:35;9.10;;;3.92;;
48199;SDS011;33990;44.602;10.976;2023-09-19T04:36:02;7.40;;;4.03;;
48199;SDS011;33990;44.602;10.976;2023-09-19T04:38:52;8.95;;;4.72;;
48199;SDS011;33990;44.602;10.976;2023-09-19T04:41:20;6.95;;;4.07;;
48199;SDS011;33990;44.602;10.976;2023-09-19T04:43:49;9.27;;;4.35;;
48199;SDS011;33990;44.602;10.976;2023-09-19T04:46:17;7.93;;;4.35;;
48199;SDS011;33990;44.602;10.976;2023-09-19T04:48:45;10.35;;;4.13;;
48199;SDS011;33990;44.602;10.976;2023-09-19T04:51:12;7.53;;;4.13;;
48199;SDS011;33990;44.602;10.976;2023-09-19T04:53:40;7.38;;;4.00;;
48199;SDS011;33990;44.602;10.976;2023-09-19T04:56:08;6.53;;;4.00;;
48199;SDS011;33990;44.602;10.976;2023-09-19T04:58:35;8.02;;;4.35;;
48199;SDS011;33990;44.602;10.976;2023-09-19T05:01:02;8.45;;;3.85;;
48199;SDS011;33990;44.602;10.976;2023-09-19T05:03:30;6.90;;;4.10;;
48199;SDS011;33990;44.602;10.976;2023-09-19T05:05:57;7.50;;;3.67;;
48199;SDS011;33990;44.602;10.976;2023-09-19T05:08:25;8.25;;;4.00;;
48199;SDS011;33990;44.602;10.976;2023-09-19T05:10:52;6.75;;;3.90;;
48199;SDS011;33990;44.602;10.976;2023-09-19T05:13:20;9.90;;;4.18;;
48199;SDS011;33990;44.602;10.976;2023-09-19T05:15:47;7.63;;;4.25;;
48199;SDS011;33990;44.602;10.976;2023-09-19T05:18:14;6.07;;;3.83;;
48199;SDS011;33990;44.602;10.976;2023-09-19T05:20:42;6.20;;;3.92;;
48199;SDS011;33990;44.602;10.976;2023-09-19T05:23:10;6.00;;;3.55;;
48199;SDS011;33990;44.602;10.976;2023-09-19T05:25:40;6.75;;;3.63;;
48199;SDS011;33990;44.602;10.976;2023-09-19T05:28:09;9.23;;;4.30;;
48199;SDS011;33990;44.602;10.976;2023-09-19T05:30:38;8.23;;;4.30;;
48199;SDS011;33990;44.602;10.976;2023-09-19T05:33:06;6.95;;;4.03;;
48199;SDS011;33990;44.602;10.976;2023-09-19T05:35:35;7.57;;;4.35;;
48199;SDS011;33990;44.602;10.976;2023-09-19T05:38:09;6.60;;;4.28;;
48199;SDS011;33990;44.602;10.976;2023-09-19T05:40:37;6.70;;;3.65;;
48199;SDS011;33990;44.602;10.976;2023-09-19T05:43:05;7.45;;;3.90;;
48199;SDS011;33990;44.602;10.976;2023-09-19T05:45:33;9.45;;;3.80;;
48199;SDS011;33990;44.602;10.976;2023-09-19T05:48:14;7.30;;;4.32;;
48199;SDS011;33990;44.602;10.976;2023-09-19T05:50:43;8.52;;;4.57;;
48199;SDS011;33990;44.602;10.976;2023-09-19T05:53:14;7.40;;;3.85;;
48199;SDS011;33990;44.602;10.976;2023-09-19T05:55:42;7.22;;;4.03;;
48199;SDS011;33990;44.602;10.976;2023-09-19T05:58:10;8.45;;;4.32;;
48199;SDS011;33990;44.602;10.976;2023-09-19T06:00:41;11.90;;;4.22;;
48199;SDS011;33990;44.602;10.976;2023-09-19T06:03:10;8.48;;;4.15;;
48199;SDS011;33990;44.602;10.976;2023-09-19T06:05:40;7.60;;;4.65;;
48199;SDS011;33990;44.602;10.976;2023-09-19T06:08:08;8.68;;;4.30;;
48199;SDS011;33990;44.602;10.976;2023-09-19T06:10:37;8.25;;;4.03;;
48199;SDS011;33990;44.602;10.976;2023-09-19T06:13:04;9.45;;;4.05;;
48199;SDS011;33990;44.602;10.976;2023-09-19T06:15:33;8.82;;;3.92;;
48199;SDS011;33990;44.602;10.976;2023-09-19T06:18:03;11.88;;;4.05;;
48199;SDS011;33990;44.602;10.976;2023-09-19T06:20:32;8.23;;;4.00;;
48199;SDS011;33990;44.602;10.976;2023-09-19T06:23:00;7.72;;;4.47;;
48199;SDS011;33990;44.602;10.976;2023-09-19T06:25:30;10.13;;;4.88;;
48199;SDS011;33990;44.602;10.976;2023-09-19T06:27:57;8.32;;;4.22;;
48199;SDS011;33990;44.602;10.976;2023-09-19T06:30:24;6.38;;;4.70;;
48199;SDS011;33990;44.602;10.976;2023-09-19T06:32:56;8.48;;;4.30;;
48199;SDS011;33990;44.602;10.976;2023-09-19T06:35:25;5.82;;;3.72;;
48199;SDS011;33990;44.602;10.976;2023-09-19T06:37:53;8.40;;;4.07;;
48199;SDS011;33990;44.602;10.976;2023-09-19T06:40:21;9.45;;;4.68;;
48199;SDS011;33990;44.602;10.976;2023-09-19T06:42:51;9.38;;;5.43;;
48199;SDS011;33990;44.602;10.976;2023-09-19T06:45:23;11.70;;;6.97;;
48199;SDS011;33990;44.602;10.976;2023-09-19T06:47:54;13.32;;;6.63;;
48199;SDS011;33990;44.602;10.976;2023-09-19T06:50:25;14.07;;;6.93;;
48199;SDS011;33990;44.602;10.976;2023-09-19T06:52:54;12.20;;;6.10;;
48199;SDS011;33990;44.602;10.976;2023-09-19T06:55:25;15.02;;;6.45;;
48199;SDS011;33990;44.602;10.976;2023-09-19T06:57:56;8.25;;;5.45;;
48199;SDS011;33990;44.602;10.976;2023-09-19T07:00:24;12.50;;;6.07;;
48199;SDS011;33990;44.602;10.976;2023-09-19T07:02:56;10.68;;;5.22;;
48199;SDS011;33990;44.602;10.976;2023-09-19T07:05:35;9.68;;;5.63;;
48199;SDS011;33990;44.602;10.976;2023-09-19T07:08:07;10.07;;;5.47;;
48199;SDS011;33990;44.602;10.976;2023-09-19T07:10:38;8.07;;;5.15;;
48199;SDS011;33990;44.602;10.976;2023-09-19T07:13:16;12.75;;;5.75;;
48199;SDS011;33990;44.602;10.976;2023-09-19T07:15:46;11.75;;;4.97;;
48199;SDS011;33990;44.602;10.976;2023-09-19T07:18:14;9.82;;;4.80;;
48199;SDS011;33990;44.602;10.976;2023-09-19T07:20:47;9.90;;;5.18;;
48199;SDS011;33990;44.602;10.976;2023-09-19T07:23:17;7.22;;;4.93;;
48199;SDS011;33990;44.602;10.976;2023-09-19T07:25:45;9.05;;;4.63;;
48199;SDS011;33990;44.602;10.976;2023-09-19T07:28:13;8.52;;;4.55;;
48199;SDS011;33990;44.602;10.976;2023-09-19T07:30:41;8.23;;;5.05;;
48199;SDS011;33990;44.602;10.976;2023-09-19T07:33:08;6.88;;;5.32;;
48199;SDS011;33990;44.602;10.976;2023-09-19T07:35:38;8.32;;;4.75;;
48199;SDS011;33990;44.602;10.976;2023-09-19T07:38:08;9.10;;;3.92;;
48199;SDS011;33990;44.602;10.976;2023-09-19T07:40:39;10.68;;;6.10;;
48199;SDS011;33990;44.602;10.976;2023-09-19T07:43:06;11.38;;;7.28;;
48199;SDS011;33990;44.602;10.976;2023-09-19T07:45:34;9.98;;;5.75;;
48199;SDS011;33990;44.602;10.976;2023-09-19T07:48:03;14.20;;;7.18;;
48199;SDS011;33990;44.602;10.976;2023-09-19T07:50:33;12.65;;;6.97;;
48199;SDS011;33990;44.602;10.976;2023-09-19T07:55:32;11.10;;;7.25;;
48199;SDS011;33990;44.602;10.976;2023-09-19T07:58:01;14.07;;;7.68;;
48199;SDS011;33990;44.602;10.976;2023-09-19T08:00:31;13.20;;;7.93;;
48199;SDS011;33990;44.602;10.976;2023-09-19T08:03:02;12.50;;;9.15;;
48199;SDS011;33990;44.602;10.976;2023-09-19T08:05:43;11.50;;;8.38;;
48199;SDS011;33990;44.602;10.976;2023-09-19T08:08:11;11.73;;;9.07;;
48199;SDS011;33990;44.602;10.976;2023-09-19T08:10:42;13.35;;;8.00;;
48199;SDS011;33990;44.602;10.976;2023-09-19T08:13:13;12.65;;;8.80;;
48199;SDS011;33990;44.602;10.976;2023-09-19T08:15:45;16.50;;;10.82;;
48199;SDS011;33990;44.602;10.976;2023-09-19T08:18:13;17.33;;;10.52;;
48199;SDS011;33990;44.602;10.976;2023-09-19T08:20:41;12.40;;;9.43;;
48199;SDS011;33990;44.602;10.976;2023-09-19T08:23:09;17.48;;;11.07;;
48199;SDS011;33990;44.602;10.976;2023-09-19T08:25:36;11.90;;;9.13;;
48199;SDS011;33990;44.602;10.976;2023-09-19T08:28:07;15.88;;;9.43;;
48199;SDS011;33990;44.602;10.976;2023-09-19T08:30:40;11.73;;;9.15;;
48199;SDS011;33990;44.602;10.976;2023-09-19T08:33:08;11.40;;;8.07;;
48199;SDS011;33990;44.602;10.976;2023-09-19T08:35:35;14.32;;;9.35;;
48199;SDS011;33990;44.602;10.976;2023-09-19T08:38:05;16.10;;;9.70;;
48199;SDS011;33990;44.602;10.976;2023-09-19T08:40:37;13.85;;;9.40;;
48199;SDS011;33990;44.602;10.976;2023-09-19T08:43:07;12.38;;;8.45;;
48199;SDS011;33990;44.602;10.976;2023-09-19T08:45:34;11.65;;;8.93;;
48199;SDS011;33990;44.602;10.976;2023-09-19T08:51:06;17.38;;;9.10;;
48199;SDS011;33990;44.602;10.976;2023-09-19T08:53:42;12.50;;;8.15;;
48199;SDS011;33990;44.602;10.976;2023-09-19T08:56:18;11.60;;;8.43;;
48199;SDS011;33990;44.602;10.976;2023-09-19T08:59:11;12.32;;;7.63;;
48199;SDS011;33990;44.602;10.976;2023-09-19T09:01:35;11.32;;;7.88;;
48199;SDS011;33990;44.602;10.976;2023-09-19T09:04:03;9.07;;;6.47;;
48199;SDS011;33990;44.602;10.976;2023-09-19T09:09:03;14.38;;;7.90;;
48199;SDS011;33990;44.602;10.976;2023-09-19T09:11:33;12.75;;;9.73;;
48199;SDS011;33990;44.602;10.976;2023-09-19T09:14:00;13.38;;;7.63;;
48199;SDS011;33990;44.602;10.976;2023-09-19T09:16:29;9.95;;;7.65;;
48199;SDS011;33990;44.602;10.976;2023-09-19T09:18:57;13.35;;;8.38;;
48199;SDS011;33990;44.602;10.976;2023-09-19T09:21:25;11.00;;;8.07;;
48199;SDS011;33990;44.602;10.976;2023-09-19T09:23:52;10.70;;;7.68;;
48199;SDS011;33990;44.602;10.976;2023-09-19T09:27:04;11.98;;;8.88;;
48199;SDS011;33990;44.602;10.976;2023-09-19T09:29:11;13.10;;;8.77;;
48199;SDS011;33990;44.602;10.976;2023-09-19T09:31:41;10.32;;;8.00;;
48199;SDS011;33990;44.602;10.976;2023-09-19T09:34:10;12.25;;;8.23;;
48199;SDS011;33990;44.602;10.976;2023-09-19T09:36:40;14.80;;;8.07;;
48199;SDS011;33990;44.602;10.976;2023-09-19T09:39:09;13.07;;;8.30;;
48199;SDS011;33990;44.602;10.976;2023-09-19T09:41:46;14.05;;;8.23;;
48199;SDS011;33990;44.602;10.976;2023-09-19T09:44:14;13.30;;;8.15;;
48199;SDS011;33990;44.602;10.976;2023-09-19T09:49:24;15.02;;;8.10;;
48199;SDS011;33990;44.602;10.976;2023-09-19T09:54:59;10.23;;;7.45;;
48199;SDS011;33990;44.602;10.976;2023-09-19T09:57:28;8.98;;;6.07;;
48199;SDS011;33990;44.602;10.976;2023-09-19T09:59:58;12.13;;;6.80;;
48199;SDS011;33990;44.602;10.976;2023-09-19T10:02:38;12.52;;;6.63;;
48199;SDS011;33990;44.602;10.976;2023-09-19T10:07:50;12.95;;;6.32;;
48199;SDS011;33990;44.602;10.976;2023-09-19T10:13:05;11.27;;;6.90;;
48199;SDS011;33990;44.602;10.976;2023-09-19T10:15:35;8.27;;;6.25;;
48199;SDS011;33990;44.602;10.976;2023-09-19T10:18:04;9.75;;;7.28;;
48199;SDS011;33990;44.602;10.976;2023-09-19T10:20:36;12.35;;;7.38;;
48199;SDS011;33990;44.602;10.976;2023-09-19T10:23:09;9.60;;;6.97;;
48199;SDS011;33990;44.602;10.976;2023-09-19T10:25:38;10.75;;;7.28;;
48199;SDS011;33990;44.602;10.976;2023-09-19T10:28:11;14.40;;;7.03;;
48199;SDS011;33990;44.602;10.976;2023-09-19T10:30:44;13.10;;;7.18;;
48199;SDS011;33990;44.602;10.976;2023-09-19T10:33:14;13.27;;;7.63;;
48199;SDS011;33990;44.602;10.976;2023-09-19T10:35:48;15.73;;;7.18;;
48199;SDS011;33990;44.602;10.976;2023-09-19T10:38:24;10.40;;;6.22;;
48199;SDS011;33990;44.602;10.976;2023-09-19T10:40:53;8.02;;;5.53;;
48199;SDS011;33990;44.602;10.976;2023-09-19T10:43:25;11.45;;;6.55;;
48199;SDS011;33990;44.602;10.976;2023-09-19T10:46:01;11.20;;;6.97;;
48199;SDS011;33990;44.602;10.976;2023-09-19T10:48:32;13.53;;;7.00;;
48199;SDS011;33990;44.602;10.976;2023-09-19T10:53:28;9.07;;;6.97;;
48199;SDS011;33990;44.602;10.976;2023-09-19T10:55:59;12.70;;;6.63;;
48199;SDS011;33990;44.602;10.976;2023-09-19T10:58:36;12.40;;;6.88;;
48199;SDS011;33990;44.602;10.976;2023-09-19T11:01:07;10.25;;;7.35;;
48199;SDS011;33990;44.602;10.976;2023-09-19T11:03:39;10.20;;;6.72;;
48199;SDS011;33990;44.602;10.976;2023-09-19T11:06:11;12.95;;;6.28;;
48199;SDS011;33990;44.602;10.976;2023-09-19T11:11:42;9.07;;;6.90;;
48199;SDS011;33990;44.602;10.976;2023-09-19T11:14:14;8.90;;;6.63;;
48199;SDS011;33990;44.602;10.976;2023-09-19T11:30:45;10.70;;;6.55;;
48199;SDS011;33990;44.602;10.976;2023-09-19T11:35:59;10.90;;;6.55;;
48199;SDS011;33990;44.602;10.976;2023-09-19T11:39:13;9.32;;;5.90;;
48199;SDS011;33990;44.602;10.976;2023-09-19T11:43:48;13.88;;;6.50;;
48199;SDS011;33990;44.602;10.976;2023-09-19T11:46:22;10.20;;;6.28;;
48199;SDS011;33990;44.602;10.976;2023-09-19T11:48:50;7.65;;;6.10;;
48199;SDS011;33990;44.602;10.976;2023-09-19T11:51:22;8.88;;;5.78;;
48199;SDS011;33990;44.602;10.976;2023-09-19T11:56:23;8.85;;;5.47;;
48199;SDS011;33990;44.602;10.976;2023-09-19T11:58:53;9.88;;;5.35;;
48199;SDS011;33990;44.602;10.976;2023-09-19T12:01:30;10.35;;;5.40;;
48199;SDS011;33990;44.602;10.976;2023-09-19T12:04:00;8.45;;;6.28;;
48199;SDS011;33990;44.602;10.976;2023-09-19T12:06:31;7.63;;;5.25;;
48199;SDS011;33990;44.602;10.976;2023-09-19T12:09:02;8.82;;;5.28;;
48199;SDS011;33990;44.602;10.976;2023-09-19T12:11:34;12.73;;;5.40;;
48199;SDS011;33990;44.602;10.976;2023-09-19T12:14:09;6.90;;;4.90;;
48199;SDS011;33990;44.602;10.976;2023-09-19T12:16:37;8.93;;;5.88;;
48199;SDS011;33990;44.602;10.976;2023-09-19T12:19:18;11.88;;;6.22;;
48199;SDS011;33990;44.602;10.976;2023-09-19T12:24:31;9.77;;;6.00;;
48199;SDS011;33990;44.602;10.976;2023-09-19T12:27:00;5.63;;;4.82;;
48199;SDS011;33990;44.602;10.976;2023-09-19T12:29:32;8.18;;;5.55;;
48199;SDS011;33990;44.602;10.976;2023-09-19T12:32:18;10.07;;;5.97;;
48199;SDS011;33990;44.602;10.976;2023-09-19T12:37:34;9.63;;;5.65;;
48199;SDS011;33990;44.602;10.976;2023-09-19T12:40:06;10.38;;;6.13;;
48199;SDS011;33990;44.602;10.976;2023-09-19T12:42:45;8.95;;;6.07;;
48199;SDS011;33990;44.602;10.976;2023-09-19T12:45:14;10.43;;;6.53;;
48199;SDS011;33990;44.602;10.976;2023-09-19T12:51:08;8.93;;;6.07;;
48199;SDS011;33990;44.602;10.976;2023-09-19T12:53:41;9.07;;;5.50;;
48199;SDS011;33990;44.602;10.976;2023-09-19T12:56:12;11.25;;;6.00;;
48199;SDS011;33990;44.602;10.976;2023-09-19T12:58:52;10.00;;;5.97;;
48199;SDS011;33990;44.602;10.976;2023-09-19T13:01:22;9.05;;;5.82;;
48199;SDS011;33990;44.602;10.976;2023-09-19T13:04:10;9.30;;;5.63;;
48199;SDS011;33990;44.602;10.976;2023-09-19T13:06:51;12.23;;;6.30;;
48199;SDS011;33990;44.602;10.976;2023-09-19T13:09:20;11.20;;;6.03;;
48199;SDS011;33990;44.602;10.976;2023-09-19T13:11:48;10.00;;;6.70;;
48199;SDS011;33990;44.602;10.976;2023-09-19T13:14:21;8.35;;;6.25;;
48199;SDS011;33990;44.602;10.976;2023-09-19T13:17:03;8.25;;;5.95;;
48199;SDS011;33990;44.602;10.976;2023-09-19T13:19:47;10.65;;;6.20;;
48199;SDS011;33990;44.602;10.976;2023-09-19T13:22:39;11.27;;;6.30;;
48199;SDS011;33990;44.602;10.976;2023-09-19T13:25:16;13.15;;;6.65;;
48199;SDS011;33990;44.602;10.976;2023-09-19T13:30:22;9.18;;;5.68;;
48199;SDS011;33990;44.602;10.976;2023-09-19T13:32:52;9.85;;;6.07;;
48199;SDS011;33990;44.602;10.976;2023-09-19T13:35:31;10.35;;;6.53;;
48199;SDS011;33990;44.602;10.976;2023-09-19T13:37:59;11.50;;;7.00;;
48199;SDS011;33990;44.602;10.976;2023-09-19T13:40:28;10.82;;;6.40;;
48199;SDS011;33990;44.602;10.976;2023-09-19T13:42:58;11.30;;;6.55;;
48199;SDS011;33990;44.602;10.976;2023-09-19T13:45:26;9.20;;;5.68;;
48199;SDS011;33990;44.602;10.976;2023-09-19T13:47:54;9.45;;;5.72;;
48199;SDS011;33990;44.602;10.976;2023-09-19T13:50:21;12.25;;;5.35;;
48199;SDS011;33990;44.602;10.976;2023-09-19T13:52:51;10.88;;;5.75;;
48199;SDS011;33990;44.602;10.976;2023-09-19T13:55:20;11.00;;;6.00;;
48199;SDS011;33990;44.602;10.976;2023-09-19T13:57:48;9.68;;;5.63;;
48199;SDS011;33990;44.602;10.976;2023-09-19T14:00:22;8.82;;;5.78;;
48199;SDS011;33990;44.602;10.976;2023-09-19T14:02:50;10.57;;;6.03;;
48199;SDS011;33990;44.602;10.976;2023-09-19T14:05:18;8.63;;;5.63;;
48199;SDS011;33990;44.602;10.976;2023-09-19T14:07:48;9.68;;;5.63;;
48199;SDS011;33990;44.602;10.976;2023-09-19T14:10:15;12.20;;;6.18;;
48199;SDS011;33990;44.602;10.976;2023-09-19T14:12:44;10.43;;;6.03;;
48199;SDS011;33990;44.602;10.976;2023-09-19T14:15:12;7.30;;;4.95;;
48199;SDS011;33990;44.602;10.976;2023-09-19T14:17:40;7.80;;;5.10;;
48199;SDS011;33990;44.602;10.976;2023-09-19T14:20:09;8.32;;;6.07;;
48199;SDS011;33990;44.602;10.976;2023-09-19T14:22:37;5.72;;;5.10;;
48199;SDS011;33990;44.602;10.976;2023-09-19T14:25:05;8.02;;;5.35;;
48199;SDS011;33990;44.602;10.976;2023-09-19T14:27:33;8.35;;;5.78;;
48199;SDS011;33990;44.602;10.976;2023-09-19T14:30:00;7.20;;;5.15;;
48199;SDS011;33990;44.602;10.976;2023-09-19T14:32:27;8.50;;;5.10;;
48199;SDS011;33990;44.602;10.976;2023-09-19T14:34:55;11.52;;;5.95;;
48199;SDS011;33990;44.602;10.976;2023-09-19T14:37:22;6.95;;;5.25;;
48199;SDS011;33990;44.602;10.976;2023-09-19T14:39:49;8.23;;;5.15;;
48199;SDS011;33990;44.602;10.976;2023-09-19T14:42:17;6.35;;;5.03;;
48199;SDS011;33990;44.602;10.976;2023-09-19T14:44:45;8.10;;;5.72;;
48199;SDS011;33990;44.602;10.976;2023-09-19T14:47:14;9.02;;;6.13;;
48199;SDS011;33990;44.602;10.976;2023-09-19T14:49:43;9.77;;;5.63;;
48199;SDS011;33990;44.602;10.976;2023-09-19T14:52:12;10.90;;;6.15;;
48199;SDS011;33990;44.602;10.976;2023-09-19T14:54:43;9.25;;;5.45;;
48199;SDS011;33990;44.602;10.976;2023-09-19T14:57:10;8.43;;;5.57;;
48199;SDS011;33990;44.602;10.976;2023-09-19T14:59:38;7.13;;;5.32;;
48199;SDS011;33990;44.602;10.976;2023-09-19T15:02:06;7.78;;;4.82;;
48199;SDS011;33990;44.602;10.976;2023-09-19T15:04:34;8.75;;;5.25;;
48199;SDS011;33990;44.602;10.976;2023-09-19T15:07:01;7.35;;;4.93;;
48199;SDS011;33990;44.602;10.976;2023-09-19T15:09:30;5.70;;;4.97;;
48199;SDS011;33990;44.602;10.976;2023-09-19T15:11:59;7.18;;;5.03;;
48199;SDS011;33990;44.602;10.976;2023-09-19T15:14:26;7.50;;;4.75;;
48199;SDS011;33990;44.602;10.976;2023-09-19T15:16:56;8.30;;;5.15;;
48199;SDS011;33990;44.602;10.976;2023-09-19T15:19:24;9.05;;;5.38;;
48199;SDS011;33990;44.602;10.976;2023-09-19T15:21:51;8.77;;;5.10;;
48199;SDS011;33990;44.602;10.976;2023-09-19T15:24:19;6.63;;;5.07;;
48199;SDS011;33990;44.602;10.976;2023-09-19T15:26:47;7.72;;;5.30;;
48199;SDS011;33990;44.602;10.976;2023-09-19T15:29:14;7.20;;;4.95;;
48199;SDS011;33990;44.602;10.976;2023-09-19T15:31:43;7.18;;;4.82;;
48199;SDS011;33990;44.602;10.976;2023-09-19T15:34:10;7.43;;;5.20;;
48199;SDS011;33990;44.602;10.976;2023-09-19T15:36:41;5.63;;;4.43;;
48199;SDS011;33990;44.602;10.976;2023-09-19T15:39:09;6.20;;;4.28;;
48199;SDS011;33990;44.602;10.976;2023-09-19T15:41:39;7.55;;;5.40;;
48199;SDS011;33990;44.602;10.976;2023-09-19T15:44:14;8.30;;;4.55;;
48199;SDS011;33990;44.602;10.976;2023-09-19T15:46:43;6.50;;;4.80;;
48199;SDS011;33990;44.602;10.976;2023-09-19T15:49:11;8.30;;;4.45;;
48199;SDS011;33990;44.602;10.976;2023-09-19T15:51:39;6.45;;;4.70;;
48199;SDS011;33990;44.602;10.976;2023-09-19T15:54:08;7.15;;;4.63;;
48199;SDS011;33990;44.602;10.976;2023-09-19T15:56:44;7.00;;;4.47;;
48199;SDS011;33990;44.602;10.976;2023-09-19T15:59:12;6.15;;;4.47;;
48199;SDS011;33990;44.602;10.976;2023-09-19T16:01:40;5.43;;;4.25;;
48199;SDS011;33990;44.602;10.976;2023-09-19T16:04:10;5.20;;;4.70;;